Time;durP1;ratioP1;P1;durP2;ratioP2;P2;SDS_P1;SDS_P2;PMS_P1;PMS_P2;Temp;Humidity;BMP_temperature;BMP_pressure;BME280_temperature;BME280_humidity;BME280_pressure;Samples;Min_cycle;Max_cycle;Signal;HPM_P1;HPM_P2
2022/01/31 00:00:56;;;;;;;;;9.00;7.67;;;;;7.57;64.29;102099.13;5023186;28;45450;-66
2022/01/31 00:03:21;;;;;;;;;7.67;7.67;;;;;7.62;63.97;102091.59;5013469;28;46399;-65
2022/01/31 00:05:47;;;;;;;;;8.00;6.67;;;;;7.63;63.73;102070.81;5037994;28;45854;-63
2022/01/31 00:08:14;;;;;;;;;8.67;8.00;;;;;7.55;63.70;102082.13;5016226;28;45531;-63
2022/01/31 00:10:40;;;;;;;;;16.33;8.67;;;;;7.67;63.44;102056.16;5021994;28;45455;-63
2022/01/31 00:13:13;;;;;;;;;8.00;3.67;;;;;7.69;63.07;102054.19;5013907;28;46130;-66
2022/01/31 00:15:42;;;;;;;;;13.00;9.67;;;;;7.73;63.05;102045.81;5022534;28;45387;-65
2022/01/31 00:18:08;;;;;;;;;13.67;9.00;;;;;7.74;63.17;102044.81;5015992;28;45319;-65
2022/01/31 00:20:35;;;;;;;;;12.67;9.67;;;;;7.77;63.22;102035.66;5023131;28;45320;-66
2022/01/31 00:23:01;;;;;;;;;6.00;6.00;;;;;7.57;63.49;102027.94;5015118;28;45616;-66
2022/01/31 00:25:26;;;;;;;;;8.67;7.67;;;;;7.68;63.74;102031.69;5022527;28;45331;-66
2022/01/31 00:27:52;;;;;;;;;11.33;8.00;;;;;7.52;63.75;102030.97;5015878;28;45613;-66
2022/01/31 00:30:17;;;;;;;;;12.00;7.67;;;;;7.50;64.26;102030.19;5022952;28;45362;-66
2022/01/31 00:32:43;;;;;;;;;9.00;6.00;;;;;7.51;64.31;102029.22;5015624;28;46079;-63
2022/01/31 00:35:09;;;;;;;;;11.67;8.00;;;;;7.50;64.42;102019.34;5020932;28;45614;-65
2022/01/31 00:37:35;;;;;;;;;10.00;7.00;;;;;7.54;64.32;102025.44;5016079;28;45738;-63
2022/01/31 00:40:00;;;;;;;;;9.67;7.00;;;;;7.56;64.77;102029.78;5017556;28;45429;-65
2022/01/31 00:42:28;;;;;;;;;6.33;4.67;;;;;7.69;64.45;102011.78;5016260;28;46044;-65
2022/01/31 00:44:56;;;;;;;;;6.00;6.00;;;;;7.68;64.49;102028.97;5034945;28;45288;-64
2022/01/31 00:47:28;;;;;;;;;8.00;6.67;;;;;7.54;64.97;102030.84;5018463;28;45565;-65
2022/01/31 00:50:07;;;;;;;;;13.67;7.00;;;;;7.65;64.97;102026.50;5021043;28;46337;-64
2022/01/31 00:52:34;;;;;;;;;8.67;6.33;;;;;7.76;64.34;102023.09;5019557;28;46160;-64
2022/01/31 00:55:00;;;;;;;;;7.67;4.33;;;;;7.84;64.40;102023.47;5020257;28;45470;-65
2022/01/31 00:57:25;;;;;;;;;7.67;6.67;;;;;7.72;64.30;102019.72;5016650;28;45376;-64
2022/01/31 00:59:51;;;;;;;;;11.33;9.33;;;;;7.73;64.36;102015.19;5017482;28;45403;-64
2022/01/31 01:02:20;;;;;;;;;10.00;6.67;;;;;7.74;64.13;101989.88;5017538;28;45435;-65
2022/01/31 01:04:46;;;;;;;;;7.33;6.67;;;;;7.78;64.74;101967.91;5017437;28;45577;-64
2022/01/31 01:07:12;;;;;;;;;8.33;6.67;;;;;7.58;64.59;101975.59;5016019;28;48151;-65
2022/01/31 01:09:37;;;;;;;;;12.67;9.00;;;;;7.57;64.71;101963.91;5022169;28;44766;-64
2022/01/31 01:12:04;;;;;;;;;9.33;7.00;;;;;7.68;64.45;101977.59;5015648;28;45467;-64
2022/01/31 01:14:30;;;;;;;;;6.67;4.33;;;;;7.60;64.50;101974.50;5021838;28;45343;-65
2022/01/31 01:16:56;;;;;;;;;6.00;1.33;;;;;7.63;64.52;101966.22;5031546;28;45378;-65
2022/01/31 01:19:22;;;;;;;;;8.33;4.33;;;;;7.46;65.02;101961.00;5021853;28;45413;-65
2022/01/31 01:21:47;;;;;;;;;6.33;6.33;;;;;7.50;65.27;101957.16;5017088;28;46112;-65
2022/01/31 01:24:14;;;;;;;;;8.67;6.00;;;;;7.47;65.08;101941.13;5019693;28;45355;-65
2022/01/31 01:26:41;;;;;;;;;7.67;2.00;;;;;7.56;65.19;101940.53;5033577;28;45346;-65
2022/01/31 01:29:06;;;;;;;;;6.33;3.33;;;;;7.60;65.18;101917.72;5017941;28;45468;-65
2022/01/31 01:31:31;;;;;;;;;4.33;4.33;;;;;7.68;65.00;101914.50;5019169;28;45812;-65
2022/01/31 01:33:57;;;;;;;;;7.67;5.33;;;;;7.50;65.37;101910.31;5019227;28;45421;-65
2022/01/31 01:36:22;;;;;;;;;5.67;5.33;;;;;7.57;65.67;101896.28;5021974;28;45389;-65
2022/01/31 01:38:48;;;;;;;;;6.00;4.00;;;;;7.70;65.37;101899.91;5017072;28;45378;-65
2022/01/31 01:41:13;;;;;;;;;4.00;3.00;;;;;7.67;64.91;101891.16;5023166;28;45430;-65
2022/01/31 01:43:38;;;;;;;;;6.00;5.00;;;;;7.62;65.89;101880.63;5018469;28;45307;-65
2022/01/31 01:46:04;;;;;;;;;8.67;4.00;;;;;7.57;65.94;101885.47;5039240;28;45484;-65
2022/01/31 01:48:30;;;;;;;;;4.00;4.00;;;;;7.68;65.56;101885.63;5019747;28;45783;-65
2022/01/31 01:50:56;;;;;;;;;11.00;4.67;;;;;7.71;65.87;101873.75;5025242;28;46406;-65
2022/01/31 01:53:22;;;;;;;;;4.67;3.00;;;;;7.73;66.10;101882.63;5020216;28;45476;-65
2022/01/31 01:55:51;;;;;;;;;4.67;3.00;;;;;7.67;66.21;101873.06;5025247;28;45521;-65
2022/01/31 01:58:17;;;;;;;;;7.00;5.33;;;;;7.60;66.83;101882.56;5029873;28;45396;-65
2022/01/31 02:00:51;;;;;;;;;3.67;3.00;;;;;7.76;66.70;101902.22;5024772;28;47244;-65
2022/01/31 02:03:21;;;;;;;;;4.67;3.00;;;;;7.75;66.80;101886.94;5015032;28;45383;-65
2022/01/31 02:05:47;;;;;;;;;3.67;2.67;;;;;7.75;67.18;101881.53;5023601;28;45245;-65
2022/01/31 02:08:14;;;;;;;;;7.67;3.00;;;;;7.71;67.22;101877.31;5019461;28;45621;-65
2022/01/31 02:10:41;;;;;;;;;4.00;3.33;;;;;7.82;67.34;101873.88;5024724;28;46493;-65
2022/01/31 02:13:09;;;;;;;;;5.33;5.33;;;;;7.86;67.14;101866.44;5018109;28;45378;-65
2022/01/31 02:15:36;;;;;;;;;7.67;4.00;;;;;7.93;67.04;101862.34;5024702;28;45376;-66
2022/01/31 02:18:03;;;;;;;;;7.67;2.00;;;;;7.88;67.55;101853.69;5018356;28;45170;-65
2022/01/31 02:20:28;;;;;;;;;6.00;3.00;;;;;7.79;68.17;101838.94;5024410;28;46035;-65
2022/01/31 02:22:54;;;;;;;;;5.00;3.00;;;;;7.86;67.95;101847.50;5017076;28;45407;-65
2022/01/31 02:25:19;;;;;;;;;2.33;2.33;;;;;7.86;67.76;101850.19;5024699;28;45326;-65
2022/01/31 02:27:45;;;;;;;;;8.00;4.00;;;;;7.78;68.40;101838.06;5018215;28;45378;-65
2022/01/31 02:30:13;;;;;;;;;6.67;4.00;;;;;7.79;68.80;101834.38;5024455;28;45839;-65
2022/01/31 02:32:39;;;;;;;;;7.33;4.00;;;;;7.87;69.01;101817.63;5017701;28;45375;-65
2022/01/31 02:35:06;;;;;;;;;6.00;4.00;;;;;7.90;69.08;101813.81;5024398;28;45543;-65
2022/01/31 02:37:32;;;;;;;;;3.00;3.00;;;;;7.87;69.60;101806.81;5017420;28;45409;-65
2022/01/31 02:39:58;;;;;;;;;9.67;4.00;;;;;7.80;69.91;101819.03;5019944;28;46648;-65
2022/01/31 02:42:23;;;;;;;;;2.33;2.33;;;;;7.83;70.15;101816.97;5019202;28;45245;-65
2022/01/31 02:44:50;;;;;;;;;5.33;3.67;;;;;7.88;69.69;101811.25;5021193;28;45433;-65
2022/01/31 02:47:23;;;;;;;;;6.00;3.67;;;;;7.91;69.86;101792.09;5020502;28;45553;-65
2022/01/31 02:49:54;;;;;;;;;10.33;6.00;;;;;7.77;70.67;101784.06;5021975;28;47521;-65
2022/01/31 02:52:20;;;;;;;;;7.00;6.00;;;;;7.83;70.58;101781.78;5036469;28;45528;-65
2022/01/31 02:54:46;;;;;;;;;6.00;3.67;;;;;7.79;70.79;101777.56;5022616;28;45372;-65
2022/01/31 02:57:12;;;;;;;;;4.00;3.67;;;;;7.81;71.58;101778.34;5020907;28;45386;-65
2022/01/31 02:59:37;;;;;;;;;3.33;3.33;;;;;7.82;71.53;101774.63;5017013;28;45425;-65
2022/01/31 03:02:05;;;;;;;;;3.00;2.00;;;;;7.92;71.64;101774.00;5021576;28;45356;-65
2022/01/31 03:04:30;;;;;;;;;4.00;2.00;;;;;7.98;71.48;101758.22;5015832;28;45684;-65
2022/01/31 03:06:56;;;;;;;;;6.33;3.00;;;;;7.78;72.30;101753.31;5018988;28;45358;-65
2022/01/31 03:09:22;;;;;;;;;6.67;4.33;;;;;7.79;72.58;101737.00;5022539;28;45750;-65
2022/01/31 03:11:48;;;;;;;;;6.33;4.67;;;;;7.86;72.84;101752.78;5019269;28;45666;-65
2022/01/31 03:14:18;;;;;;;;;3.67;3.67;;;;;7.93;73.27;101727.03;5018582;28;45328;-65
2022/01/31 03:16:45;;;;;;;;;4.00;2.00;;;;;7.91;73.52;101734.38;5007221;28;45363;-65
2022/01/31 03:19:11;;;;;;;;;3.67;3.67;;;;;7.88;73.42;101724.66;5019612;28;47094;-65
2022/01/31 03:21:37;;;;;;;;;1.67;1.00;;;;;7.86;73.72;101744.69;5036166;28;45450;-65
2022/01/31 03:24:05;;;;;;;;;3.33;2.00;;;;;7.74;74.21;101747.25;5019761;28;45457;-65
2022/01/31 03:26:30;;;;;;;;;6.33;4.33;;;;;7.69;75.32;101729.59;5021977;28;45500;-65
2022/01/31 03:28:56;;;;;;;;;1.67;1.67;;;;;7.82;74.52;101731.34;5018632;28;47558;-65
2022/01/31 03:31:21;;;;;;;;;3.00;1.33;;;;;7.90;74.38;101729.94;5020164;28;45262;-65
2022/01/31 03:33:48;;;;;;;;;0.00;0.00;;;;;7.93;74.44;101721.63;5017531;28;45295;-65
2022/01/31 03:36:14;;;;;;;;;9.00;3.00;;;;;7.95;74.59;101727.81;5020687;28;45280;-65
2022/01/31 03:38:41;;;;;;;;;8.00;3.00;;;;;8.00;74.74;101728.34;5015131;28;46269;-65
2022/01/31 03:41:11;;;;;;;;;3.00;1.00;;;;;8.07;75.21;101713.41;5022660;28;45665;-65
2022/01/31 03:43:37;;;;;;;;;4.00;4.00;;;;;8.08;75.76;101694.34;5016535;28;45347;-65
2022/01/31 03:46:02;;;;;;;;;3.67;3.00;;;;;8.11;76.61;101695.94;5023027;28;45260;-66
2022/01/31 03:48:29;;;;;;;;;6.00;2.00;;;;;7.98;78.23;101697.81;5018190;28;46994;-65
2022/01/31 03:50:58;;;;;;;;;7.00;4.00;;;;;7.76;80.30;101693.91;5023455;28;45313;-65
2022/01/31 03:53:23;;;;;;;;;2.33;2.00;;;;;7.78;81.00;101683.00;5012179;28;45675;-65
2022/01/31 03:55:49;;;;;;;;;1.00;1.00;;;;;7.65;83.11;101674.00;5018308;28;45398;-65
2022/01/31 03:58:14;;;;;;;;;3.00;3.00;;;;;7.49;82.97;101709.34;5011217;28;46663;-65
2022/01/31 04:00:41;;;;;;;;;0.00;0.00;;;;;7.48;83.58;101707.63;5023329;28;45397;-65
2022/01/31 04:03:06;;;;;;;;;2.00;2.00;;;;;7.61;83.92;101711.19;5013757;28;45364;-65
2022/01/31 04:05:32;;;;;;;;;2.33;1.67;;;;;7.49;84.46;101706.66;5023368;28;45330;-65
2022/01/31 04:07:58;;;;;;;;;2.67;1.67;;;;;7.55;85.01;101700.81;5016842;28;45776;-66
2022/01/31 04:10:25;;;;;;;;;3.00;3.00;;;;;7.59;84.57;101694.25;5022510;28;45324;-65
2022/01/31 04:12:51;;;;;;;;;2.33;1.00;;;;;7.63;84.45;101706.56;5031803;28;45428;-65
2022/01/31 04:15:16;;;;;;;;;8.00;2.67;;;;;7.66;84.03;101719.88;5023026;28;45400;-65
2022/01/31 04:17:42;;;;;;;;;3.67;1.00;;;;;7.66;83.85;101709.06;5015902;28;45402;-65
2022/01/31 04:20:08;;;;;;;;;5.33;3.67;;;;;7.64;83.98;101719.13;5022916;28;45442;-65
2022/01/31 04:22:39;;;;;;;;;1.00;1.00;;;;;7.65;84.00;101723.56;5015796;28;45374;-65
2022/01/31 04:25:06;;;;;;;;;1.00;1.00;;;;;7.64;83.92;101720.94;5022919;28;45529;-65
2022/01/31 04:27:44;;;;;;;;;2.00;2.00;;;;;7.68;84.53;101727.88;5015802;28;46130;-65
2022/01/31 04:30:12;;;;;;;;;2.00;2.00;;;;;7.74;84.04;101733.72;5021729;28;45518;-65
2022/01/31 04:32:37;;;;;;;;;4.00;2.00;;;;;7.80;83.77;101730.63;5015980;28;45517;-65
2022/01/31 04:35:03;;;;;;;;;2.00;2.00;;;;;7.77;83.90;101735.34;5022977;28;45321;-65
2022/01/31 04:37:28;;;;;;;;;0.33;0.33;;;;;7.80;83.82;101727.91;5015670;28;45593;-66
2022/01/31 04:39:54;;;;;;;;;0.00;0.00;;;;;7.78;84.06;101737.97;5033308;28;45427;-65
2022/01/31 04:42:19;;;;;;;;;4.67;2.67;;;;;7.72;84.25;101735.69;5015193;28;45887;-65
2022/01/31 04:44:45;;;;;;;;;3.00;2.00;;;;;7.88;83.96;101734.63;5019867;28;45418;-65
2022/01/31 04:47:10;;;;;;;;;2.67;2.00;;;;;7.97;83.49;101715.88;5016724;28;45587;-65
2022/01/31 04:49:36;;;;;;;;;4.00;2.00;;;;;7.97;83.33;101718.59;5020158;28;45819;-65
2022/01/31 04:52:01;;;;;;;;;2.33;1.67;;;;;8.05;83.40;101710.78;5019076;28;45347;-65
2022/01/31 04:54:27;;;;;;;;;1.67;1.67;;;;;8.05;83.20;101707.22;5021190;28;45378;-65
2022/01/31 04:56:52;;;;;;;;;3.33;2.33;;;;;8.03;83.24;101701.06;5018585;28;46991;-66
2022/01/31 04:59:18;;;;;;;;;0.00;0.00;;;;;8.08;83.43;101716.00;5014136;28;45726;-65
2022/01/31 05:01:46;;;;;;;;;2.67;1.67;;;;;8.10;83.02;101715.91;5020189;28;45414;-65
2022/01/31 05:04:11;;;;;;;;;3.00;2.00;;;;;8.20;83.07;101741.31;5015434;28;45468;-65
2022/01/31 05:06:39;;;;;;;;;3.00;2.00;;;;;8.23;83.00;101740.25;5019784;28;45759;-65
2022/01/31 05:09:05;;;;;;;;;6.00;4.33;;;;;8.30;83.00;101747.81;5017130;28;45389;-66
2022/01/31 05:11:31;;;;;;;;;3.00;3.00;;;;;8.24;83.26;101753.69;5019457;28;45250;-66
2022/01/31 05:13:56;;;;;;;;;2.00;2.00;;;;;8.21;82.83;101759.31;5015632;28;45495;-66
2022/01/31 05:16:22;;;;;;;;;9.00;3.00;;;;;8.28;82.47;101746.19;5019449;28;46342;-66
2022/01/31 05:18:48;;;;;;;;;3.33;3.00;;;;;8.30;81.48;101742.41;5015765;28;45479;-65
2022/01/31 05:21:13;;;;;;;;;8.00;4.00;;;;;8.30;80.81;101737.00;5020021;28;45335;-66
2022/01/31 05:23:38;;;;;;;;;2.33;1.67;;;;;8.22;79.70;101739.38;5016753;28;45607;-65
2022/01/31 05:26:04;;;;;;;;;1.00;1.00;;;;;8.26;79.58;101746.28;5020872;28;45294;-65
2022/01/31 05:28:29;;;;;;;;;4.00;4.00;;;;;8.21;77.84;101749.34;5015782;28;45412;-66
2022/01/31 05:30:55;;;;;;;;;6.33;3.00;;;;;8.16;76.90;101756.06;5021561;28;45398;-65
2022/01/31 05:33:20;;;;;;;;;8.67;2.00;;;;;8.14;75.81;101744.47;5017446;28;45497;-66
2022/01/31 05:35:45;;;;;;;;;6.00;2.00;;;;;8.12;75.00;101747.28;5022021;28;45352;-65
2022/01/31 05:38:12;;;;;;;;;5.67;2.00;;;;;8.03;73.45;101752.50;5016645;28;45434;-66
2022/01/31 05:40:37;;;;;;;;;3.67;2.00;;;;;8.01;73.14;101762.56;5021128;28;45355;-68
2022/01/31 05:43:03;;;;;;;;;3.33;2.00;;;;;8.02;72.50;101758.88;5018625;28;45902;-66
2022/01/31 05:45:28;;;;;;;;;1.33;1.00;;;;;7.99;71.92;101759.94;5020702;28;45578;-66
2022/01/31 05:47:53;;;;;;;;;4.00;2.00;;;;;8.03;72.25;101750.66;5018519;28;45470;-65
2022/01/31 05:50:19;;;;;;;;;3.33;3.00;;;;;7.98;71.99;101758.22;5020924;28;45315;-65
2022/01/31 05:52:44;;;;;;;;;3.33;2.67;;;;;7.98;72.08;101768.16;5020078;28;45571;-65
2022/01/31 05:55:12;;;;;;;;;2.33;2.33;;;;;7.97;72.43;101759.19;5040046;28;45488;-66
2022/01/31 05:57:37;;;;;;;;;3.00;1.00;;;;;7.91;72.72;101761.44;5018443;28;45512;-66
2022/01/31 06:00:05;;;;;;;;;3.00;2.00;;;;;7.93;72.38;101748.69;5020475;28;45446;-66
2022/01/31 06:02:31;;;;;;;;;2.00;0.00;;;;;7.86;71.60;101739.28;5016560;28;45491;-66
2022/01/31 06:04:56;;;;;;;;;6.00;6.00;;;;;7.83;71.36;101743.91;5020872;28;45438;-66
2022/01/31 06:07:21;;;;;;;;;7.00;4.67;;;;;7.81;70.93;101754.00;5015992;28;45391;-66
2022/01/31 06:09:47;;;;;;;;;1.00;1.00;;;;;7.78;70.45;101765.00;5021122;28;45315;-66
2022/01/31 06:12:12;;;;;;;;;3.00;1.33;;;;;7.81;71.00;101767.53;5013854;28;45430;-66
2022/01/31 06:14:39;;;;;;;;;7.00;2.33;;;;;7.76;70.59;101768.78;5018271;28;46902;-66
2022/01/31 06:17:04;;;;;;;;;3.00;2.67;;;;;7.77;70.05;101765.97;5028229;28;45664;-66
2022/01/31 06:19:30;;;;;;;;;6.00;1.33;;;;;7.74;69.79;101782.41;5019455;28;45633;-66
2022/01/31 06:21:55;;;;;;;;;2.00;1.67;;;;;7.77;69.21;101781.34;5018096;28;45371;-68
2022/01/31 06:24:21;;;;;;;;;1.00;1.00;;;;;7.77;69.82;101776.81;5020755;28;45493;-66
2022/01/31 06:26:47;;;;;;;;;2.67;2.00;;;;;7.73;69.45;101767.19;5035861;28;45471;-66
2022/01/31 06:29:12;;;;;;;;;3.00;2.67;;;;;7.62;69.29;101761.63;5020568;28;45259;-66
2022/01/31 06:31:38;;;;;;;;;6.67;5.00;;;;;7.60;68.80;101777.06;5022703;28;45307;-65
2022/01/31 06:34:04;;;;;;;;;1.00;1.00;;;;;7.65;69.33;101772.25;5035508;28;47401;-65
2022/01/31 06:36:29;;;;;;;;;5.33;2.67;;;;;7.66;69.60;101779.41;5021419;28;45349;-65
2022/01/31 06:38:54;;;;;;;;;3.67;2.00;;;;;7.56;69.32;101778.28;5016509;28;45668;-65
2022/01/31 06:41:22;;;;;;;;;4.00;1.00;;;;;7.57;69.65;101784.56;5023114;28;45793;-65
2022/01/31 06:43:48;;;;;;;;;4.00;2.67;;;;;7.55;69.50;101787.34;5017413;28;45464;-65
2022/01/31 06:46:14;;;;;;;;;7.00;4.00;;;;;7.58;70.24;101791.69;5022978;28;45284;-66
2022/01/31 06:48:39;;;;;;;;;2.00;2.00;;;;;7.56;69.83;101799.91;5020610;28;45359;-65
2022/01/31 06:51:05;;;;;;;;;8.00;3.33;;;;;7.51;69.39;101803.91;5024595;28;45335;-65
2022/01/31 06:53:30;;;;;;;;;2.00;2.00;;;;;7.48;69.99;101786.03;5019988;28;47664;-65
2022/01/31 06:55:57;;;;;;;;;6.67;6.67;;;;;7.50;69.96;101791.34;5022918;28;45489;-65
2022/01/31 06:58:23;;;;;;;;;3.00;1.00;;;;;7.45;69.00;101801.59;5014480;28;45520;-65
2022/01/31 07:00:49;;;;;;;;;1.00;1.00;;;;;7.46;69.95;101798.78;5022973;28;45386;-65
2022/01/31 07:03:14;;;;;;;;;8.67;2.33;;;;;7.43;70.41;101793.59;5032462;28;47084;-66
2022/01/31 07:05:41;;;;;;;;;3.00;3.00;;;;;7.42;70.00;101805.38;5024427;28;45433;-65
2022/01/31 07:08:06;;;;;;;;;4.67;2.00;;;;;7.45;69.99;101809.72;5016572;28;45430;-65
2022/01/31 07:10:33;;;;;;;;;1.00;1.00;;;;;7.41;70.58;101796.41;5024402;28;45395;-65
2022/01/31 07:12:59;;;;;;;;;3.33;2.00;;;;;7.41;69.71;101800.94;5016673;28;46666;-65
2022/01/31 07:15:24;;;;;;;;;3.00;2.00;;;;;7.42;69.57;101803.53;5024080;28;45198;-65
2022/01/31 07:17:50;;;;;;;;;4.00;4.00;;;;;7.37;69.48;101812.94;5017154;28;45434;-64
2022/01/31 07:20:23;;;;;;;;;6.67;3.00;;;;;7.34;69.21;101815.84;5023898;28;45297;-66
2022/01/31 07:22:56;;;;;;;;;4.67;3.00;;;;;7.36;69.58;101830.13;5015132;28;45727;-64
2022/01/31 07:25:34;;;;;;;;;7.00;3.00;;;;;7.37;69.67;101821.03;5022444;28;45461;-64
2022/01/31 07:28:01;;;;;;;;;5.33;2.00;;;;;7.34;69.28;101838.31;5015798;28;45356;-67
2022/01/31 07:30:26;;;;;;;;;3.33;3.33;;;;;7.28;69.38;101822.50;5022257;28;45478;-65
2022/01/31 07:32:52;;;;;;;;;0.00;0.00;;;;;7.37;69.69;101821.03;5015290;28;45340;-65
2022/01/31 07:35:17;;;;;;;;;6.67;3.00;;;;;7.44;69.49;101833.19;5038117;28;45481;-65
2022/01/31 07:37:42;;;;;;;;;1.67;1.67;;;;;7.47;68.96;101838.38;5016993;28;45402;-65
2022/01/31 07:40:08;;;;;;;;;7.33;3.00;;;;;7.61;69.00;101832.91;5019447;28;45518;-65
2022/01/31 07:42:34;;;;;;;;;6.00;1.67;;;;;7.68;68.76;101834.22;5017400;28;45460;-65
2022/01/31 07:44:59;;;;;;;;;2.67;2.67;;;;;7.73;68.70;101840.22;5020159;28;45260;-65
2022/01/31 07:47:24;;;;;;;;;8.00;5.33;;;;;7.72;68.30;101834.91;5019269;28;45894;-67
2022/01/31 07:49:53;;;;;;;;;12.33;6.67;;;;;7.82;68.18;101858.50;5021233;28;45329;-66
2022/01/31 07:52:18;;;;;;;;;10.00;4.00;;;;;7.90;67.71;101847.16;5018969;28;45404;-65
2022/01/31 07:54:44;;;;;;;;;5.33;4.00;;;;;7.85;67.64;101837.63;5022037;28;45424;-65
2022/01/31 07:57:10;;;;;;;;;2.00;2.00;;;;;7.90;68.05;101849.00;5035173;28;45227;-66
2022/01/31 07:59:35;;;;;;;;;4.00;2.33;;;;;7.95;67.42;101852.28;5016745;28;45430;-67
2022/01/31 08:02:01;;;;;;;;;6.00;3.33;;;;;7.90;67.11;101862.53;5018025;28;45613;-66
2022/01/31 08:04:26;;;;;;;;;6.33;2.67;;;;;8.03;67.72;101867.03;5015176;28;45398;-67
2022/01/31 08:06:52;;;;;;;;;6.33;2.67;;;;;8.11;67.03;101888.13;5018918;28;45577;-65
2022/01/31 08:09:17;;;;;;;;;3.33;1.00;;;;;8.15;66.79;101886.97;5020618;28;45478;-65
2022/01/31 08:11:42;;;;;;;;;6.00;2.33;;;;;8.08;67.05;101877.53;5037365;28;46817;-65
2022/01/31 08:14:10;;;;;;;;;6.00;6.00;;;;;8.10;66.15;101881.88;5019302;28;45417;-65
2022/01/31 08:16:37;;;;;;;;;1.33;1.33;;;;;8.22;66.40;101896.41;5021145;28;45535;-66
2022/01/31 08:19:06;;;;;;;;;6.00;6.00;;;;;8.21;65.96;101891.94;5018867;28;45311;-65
2022/01/31 08:21:32;;;;;;;;;3.33;3.00;;;;;8.33;66.80;101893.00;5020808;28;45494;-66
2022/01/31 08:23:58;;;;;;;;;3.67;1.67;;;;;8.33;65.90;101899.25;5017775;28;45371;-65
2022/01/31 08:26:23;;;;;;;;;6.33;3.00;;;;;8.37;66.31;101889.97;5036187;28;46354;-65
2022/01/31 08:28:55;;;;;;;;;3.33;3.00;;;;;8.29;65.74;101875.19;5019157;28;45690;-65
2022/01/31 08:31:29;;;;;;;;;2.67;2.67;;;;;8.25;66.43;101889.91;5021609;28;46363;-65
2022/01/31 08:36:22;;;;;;;;;3.33;3.00;;;;;8.31;67.20;101879.56;5020955;28;45307;-65
2022/01/31 08:38:48;;;;;;;;;4.00;1.67;;;;;8.33;66.03;101896.53;5019901;28;45311;-65
2022/01/31 08:41:14;;;;;;;;;5.00;4.67;;;;;8.33;66.14;101877.59;5036830;28;47820;-65
2022/01/31 08:43:40;;;;;;;;;4.67;4.00;;;;;8.31;66.40;101866.03;5020641;28;45430;-65
2022/01/31 08:46:08;;;;;;;;;2.67;2.00;;;;;8.36;66.29;101871.09;5022742;28;45398;-65
2022/01/31 08:48:33;;;;;;;;;3.67;3.00;;;;;8.37;66.18;101895.38;5011020;28;45306;-65
2022/01/31 08:51:00;;;;;;;;;6.00;4.00;;;;;8.36;66.50;101917.13;5022838;28;45232;-65
2022/01/31 08:53:26;;;;;;;;;2.00;2.00;;;;;8.46;67.15;101904.72;5013191;28;45337;-65
2022/01/31 08:55:58;;;;;;;;;7.00;3.00;;;;;8.55;66.68;101915.75;5022672;28;45335;-64
2022/01/31 08:58:24;;;;;;;;;13.00;9.33;;;;;8.51;65.71;101908.81;5013948;28;45318;-65
2022/01/31 09:00:58;;;;;;;;;7.67;5.33;;;;;8.54;65.89;101914.03;5022571;28;46674;-65
2022/01/31 09:06:03;;;;;;;;;2.67;2.67;;;;;8.82;63.94;101912.09;5022625;28;45320;-66
2022/01/31 09:08:29;;;;;;;;;8.67;7.33;;;;;9.07;63.79;101901.22;5013841;28;45706;-66
2022/01/31 09:10:54;;;;;;;;;7.00;1.00;;;;;9.09;64.32;101885.72;5017514;28;46329;-65
2022/01/31 09:13:20;;;;;;;;;4.33;4.00;;;;;8.99;63.43;101877.38;5014578;28;45522;-66
2022/01/31 09:15:45;;;;;;;;;9.00;8.67;;;;;8.82;63.67;101882.28;5017477;28;45326;-66
2022/01/31 09:18:11;;;;;;;;;7.00;2.67;;;;;8.83;64.19;101875.88;5030064;28;45591;-66
2022/01/31 09:20:37;;;;;;;;;5.67;3.33;;;;;8.94;64.28;101867.84;5022108;28;45531;-65
2022/01/31 09:23:04;;;;;;;;;19.67;19.67;;;;;9.01;63.39;101862.84;5013893;28;45304;-65
2022/01/31 09:25:32;;;;;;;;;18.33;18.00;;;;;8.99;63.60;101877.38;5022271;28;45260;-65
2022/01/31 09:27:59;;;;;;;;;6.67;5.67;;;;;8.98;62.86;101872.91;5016017;28;45462;-65
2022/01/31 09:30:26;;;;;;;;;5.67;5.67;;;;;8.81;62.78;101877.84;5021947;28;45496;-65
2022/01/31 09:32:53;;;;;;;;;6.00;3.00;;;;;8.83;62.57;101886.72;5015981;28;45208;-65
2022/01/31 09:35:19;;;;;;;;;5.33;4.67;;;;;8.86;63.28;101889.19;5017582;28;45312;-64
2022/01/31 09:37:44;;;;;;;;;8.67;6.67;;;;;9.13;63.27;101875.53;5017232;28;45348;-67
2022/01/31 09:40:13;;;;;;;;;4.67;3.00;;;;;9.28;62.21;101886.09;5019292;28;45252;-64
2022/01/31 09:42:58;;;;;;;;;8.00;5.67;;;;;9.21;61.17;101892.94;5018476;28;45331;-65
2022/01/31 09:45:37;;;;;;;;;7.33;5.67;;;;;9.19;61.31;101897.63;5021949;28;45339;-64
2022/01/31 09:50:28;;;;;;;;;4.67;3.00;;;;;9.25;61.56;101909.88;5021196;28;46229;-65
2022/01/31 09:52:55;;;;;;;;;7.33;4.33;;;;;9.18;60.37;101893.19;5013737;28;45240;-64
2022/01/31 09:55:21;;;;;;;;;5.33;2.00;;;;;9.15;60.80;101897.94;5022123;28;45335;-65
2022/01/31 09:57:48;;;;;;;;;7.00;7.00;;;;;9.13;61.67;101891.78;5018424;28;45496;-65
2022/01/31 10:00:14;;;;;;;;;3.67;3.33;;;;;9.00;60.70;101913.47;5022703;28;46187;-65
2022/01/31 10:02:39;;;;;;;;;4.00;2.00;;;;;8.89;60.32;101902.53;5019476;28;45410;-65
2022/01/31 10:05:05;;;;;;;;;6.00;4.67;;;;;8.92;61.17;101897.75;5025428;28;45486;-65
2022/01/31 10:07:45;;;;;;;;;2.67;2.00;;;;;8.88;60.71;101914.34;5019482;28;45469;-65
2022/01/31 10:10:20;;;;;;;;;2.00;1.33;;;;;8.94;60.53;101928.34;5025113;28;46144;-66
2022/01/31 10:18:05;;;;;;;;;4.00;3.00;;;;;8.96;59.53;101930.94;5019056;28;45233;-66
2022/01/31 10:20:32;;;;;;;;;2.67;2.00;;;;;9.00;59.44;101932.44;5025261;28;45225;-65
2022/01/31 10:23:11;;;;;;;;;5.00;5.00;;;;;9.12;59.35;101937.00;5018255;28;45481;-64
2022/01/31 10:25:38;;;;;;;;;4.00;4.00;;;;;9.15;59.18;101931.34;5025222;28;45502;-65
2022/01/31 10:28:15;;;;;;;;;5.67;2.67;;;;;9.05;57.66;101929.44;5017423;28;45392;-65
2022/01/31 10:30:41;;;;;;;;;7.67;3.33;;;;;9.27;57.85;101956.75;5024826;28;45291;-64
2022/01/31 10:33:09;;;;;;;;;9.00;7.00;;;;;9.32;57.06;101944.56;5018058;28;45446;-65
2022/01/31 10:35:38;;;;;;;;;4.00;2.00;;;;;9.39;56.97;101945.00;5020069;28;45399;-65
2022/01/31 10:38:11;;;;;;;;;5.00;3.00;;;;;9.45;56.55;101938.25;5019864;28;45413;-65
2022/01/31 10:43:58;;;;;;;;;2.67;2.67;;;;;9.35;57.69;101951.63;5018624;28;45234;-65
2022/01/31 10:57:22;;;;;;;;;3.00;3.00;;;;;9.21;56.81;101947.16;5022746;28;45295;-66
2022/01/31 10:59:49;;;;;;;;;3.33;2.00;;;;;9.38;56.03;101965.81;5019130;28;45395;-66
2022/01/31 11:02:24;;;;;;;;;6.67;2.33;;;;;9.43;54.34;101956.47;5018838;28;46165;-66
2022/01/31 11:04:50;;;;;;;;;7.33;3.33;;;;;9.42;55.18;101949.34;5024374;28;45397;-66
2022/01/31 11:07:20;;;;;;;;;4.00;4.00;;;;;9.55;54.88;101959.19;5016944;28;45371;-66
2022/01/31 11:09:46;;;;;;;;;8.33;2.33;;;;;9.52;54.43;101961.22;5024797;28;45575;-66
2022/01/31 11:12:13;;;;;;;;;4.67;1.67;;;;;9.38;52.45;101944.13;5017759;28;45464;-66
2022/01/31 11:14:41;;;;;;;;;6.00;2.67;;;;;9.48;53.77;101962.44;5023983;28;45402;-65
2022/01/31 11:17:11;;;;;;;;;4.00;4.00;;;;;9.55;53.95;101956.47;5018468;28;45327;-66
2022/01/31 11:19:39;;;;;;;;;6.67;3.00;;;;;9.58;54.21;101947.22;5024738;28;45442;-64
2022/01/31 11:22:07;;;;;;;;;2.00;2.00;;;;;9.70;53.31;101965.31;5018415;28;46024;-66
2022/01/31 11:24:45;;;;;;;;;0.33;0.33;;;;;9.83;52.49;101960.72;5023414;28;45335;-63
2022/01/31 11:27:13;;;;;;;;;4.00;4.00;;;;;9.68;52.92;101953.69;5018477;28;46049;-66
2022/01/31 11:29:42;;;;;;;;;3.33;2.67;;;;;9.68;51.90;101957.28;5023234;28;45444;-64
2022/01/31 11:32:09;;;;;;;;;2.67;2.33;;;;;9.53;52.26;101957.53;5018554;28;46141;-64
2022/01/31 11:34:39;;;;;;;;;3.00;2.00;;;;;9.65;53.25;101957.50;5019353;28;45213;-64
2022/01/31 11:37:06;;;;;;;;;8.00;2.00;;;;;9.57;55.81;101969.91;5019582;28;45474;-65
2022/01/31 11:39:31;;;;;;;;;8.00;3.00;;;;;9.27;61.37;102000.13;5022150;28;45327;-65
2022/01/31 11:42:01;;;;;;;;;1.67;1.33;;;;;8.46;67.35;101984.13;5019855;28;45428;-66
2022/01/31 11:44:34;;;;;;;;;1.33;1.33;;;;;8.33;69.57;101988.59;5022694;28;45474;-65
2022/01/31 11:47:04;;;;;;;;;6.00;2.33;;;;;8.54;69.84;101978.19;5036660;28;45433;-65
2022/01/31 11:49:56;;;;;;;;;2.00;2.00;;;;;8.40;68.23;101975.56;5014362;28;45450;-65
2022/01/31 11:52:23;;;;;;;;;6.00;1.67;;;;;8.51;68.85;101975.66;5016878;28;46220;-65
2022/01/31 11:55:00;;;;;;;;;4.00;3.00;;;;;8.22;68.99;102012.81;5033138;28;45384;-65
2022/01/31 11:57:28;;;;;;;;;2.33;2.00;;;;;7.61;73.29;102061.94;5034854;28;45349;-65